createdAt,value
2019-02-17T00:00:21.550Z,6.56
2019-02-17T00:01:21.530Z,6.51
2019-02-17T00:02:21.526Z,6.44
2019-02-17T00:03:21.499Z,6.49
2019-02-17T00:04:21.493Z,6.46
2019-02-17T00:05:21.537Z,6.51
2019-02-17T00:06:21.490Z,6.41
2019-02-17T00:07:21.467Z,6.46
2019-02-17T00:08:21.443Z,6.48
2019-02-17T00:09:21.450Z,6.43
2019-02-17T00:10:21.509Z,6.43
2019-02-17T00:11:21.425Z,6.46
2019-02-17T00:12:21.436Z,6.30
2019-02-17T00:13:21.395Z,6.31
2019-02-17T00:14:21.384Z,6.34
2019-02-17T00:15:21.366Z,6.37
2019-02-17T00:16:21.351Z,6.43
2019-02-17T00:17:21.355Z,6.46
2019-02-17T00:18:21.328Z,6.52
2019-02-17T00:19:21.330Z,6.46
2019-02-17T00:20:21.385Z,6.40
2019-02-17T00:21:21.294Z,6.34
2019-02-17T00:22:21.297Z,6.30
2019-02-17T00:23:21.272Z,6.22
2019-02-17T00:24:21.275Z,6.27
2019-02-17T00:25:21.257Z,6.31
2019-02-17T00:26:21.236Z,6.19
2019-02-17T00:27:21.238Z,6.22
2019-02-17T00:28:21.232Z,6.27
2019-02-17T00:29:21.203Z,6.21
2019-02-17T00:30:21.197Z,6.14
2019-02-17T00:31:21.180Z,6.14
2019-02-17T00:32:21.201Z,6.14
2019-02-17T00:33:21.179Z,6.04
2019-02-17T00:34:21.163Z,6.03
2019-02-17T00:35:21.189Z,6.12
2019-02-17T00:36:21.134Z,6.08
2019-02-17T00:37:21.138Z,6.00
2019-02-17T00:38:21.120Z,6.09
2019-02-17T00:39:21.090Z,5.99
2019-02-17T00:40:21.083Z,6.01
2019-02-17T00:41:21.066Z,6.01
2019-02-17T00:42:21.066Z,5.90
2019-02-17T00:43:21.078Z,5.91
2019-02-17T00:44:21.035Z,5.85
2019-02-17T00:45:21.050Z,5.83
2019-02-17T00:46:21.015Z,5.79
2019-02-17T00:47:21.000Z,5.78
2019-02-17T00:48:21.018Z,5.72
2019-02-17T00:49:20.979Z,5.72
2019-02-17T00:50:20.969Z,5.67
2019-02-17T00:51:20.970Z,5.68
2019-02-17T00:52:20.946Z,5.79
2019-02-17T00:53:20.957Z,5.63
2019-02-17T00:54:20.922Z,5.63
2019-02-17T00:55:20.924Z,5.60
2019-02-17T00:56:20.898Z,5.60
2019-02-17T00:57:20.890Z,5.60
2019-02-17T00:58:20.894Z,5.57
2019-02-17T00:59:20.870Z,5.58
2019-02-17T01:00:20.873Z,5.63
2019-02-17T01:01:20.849Z,5.53
2019-02-17T01:02:20.838Z,5.58
2019-02-17T01:03:20.843Z,5.64
2019-02-17T01:04:20.815Z,5.53
2019-02-17T01:05:20.810Z,5.57
2019-02-17T01:06:20.797Z,5.61
2019-02-17T01:07:20.785Z,5.67
2019-02-17T01:08:20.786Z,5.72
2019-02-17T01:09:20.783Z,5.67
2019-02-17T01:10:20.747Z,5.65
2019-02-17T01:11:20.738Z,5.64
2019-02-17T01:12:20.748Z,5.60
2019-02-17T01:13:20.744Z,5.64
2019-02-17T01:14:20.706Z,5.67
2019-02-17T01:15:20.704Z,5.68
2019-02-17T01:16:20.684Z,5.63
2019-02-17T01:17:20.673Z,5.63
2019-02-17T01:18:20.854Z,5.64
2019-02-17T01:19:20.653Z,5.67
2019-02-17T01:20:20.635Z,5.56
2019-02-17T01:21:20.630Z,5.58
2019-02-17T01:22:20.624Z,5.58
2019-02-17T01:23:20.604Z,5.61
2019-02-17T01:24:20.610Z,5.63
2019-02-17T01:25:20.581Z,5.58
2019-02-17T01:26:20.584Z,5.56
2019-02-17T01:27:20.583Z,5.61
2019-02-17T01:28:20.550Z,5.58
2019-02-17T01:29:20.967Z,5.57
2019-02-17T01:30:20.540Z,5.63
2019-02-17T01:31:20.527Z,5.51
2019-02-17T01:32:20.509Z,5.64
2019-02-17T01:33:20.493Z,5.58
2019-02-17T01:34:20.503Z,5.54
2019-02-17T01:35:20.495Z,5.48
2019-02-17T01:36:20.463Z,5.46
2019-02-17T01:37:20.448Z,5.45
2019-02-17T01:38:20.443Z,5.43
2019-02-17T01:39:20.442Z,5.39
2019-02-17T01:40:20.423Z,5.38
2019-02-17T01:41:20.406Z,5.43
2019-02-17T01:42:20.391Z,5.42
2019-02-17T01:43:20.383Z,5.45
2019-02-17T01:44:20.388Z,5.46
2019-02-17T01:45:20.403Z,5.36
2019-02-17T01:46:20.347Z,5.40
2019-02-17T01:47:20.338Z,5.33
2019-02-17T01:48:20.324Z,5.40
2019-02-17T01:49:20.329Z,5.39
2019-02-17T01:50:20.304Z,5.40
2019-02-17T01:51:20.290Z,5.40
2019-02-17T01:52:20.279Z,5.42
2019-02-17T01:53:20.285Z,5.38
2019-02-17T01:54:20.294Z,5.40
2019-02-17T01:55:20.252Z,5.35
2019-02-17T01:56:20.239Z,5.35
2019-02-17T01:57:20.228Z,5.30
2019-02-17T01:58:20.223Z,5.31
2019-02-17T01:59:30.199Z,5.28
2019-02-17T02:00:21.189Z,5.35
2019-02-17T02:01:20.176Z,5.31
2019-02-17T02:02:20.184Z,5.30
2019-02-17T02:03:20.155Z,5.36
2019-02-17T02:04:20.166Z,5.40
2019-02-17T02:05:20.136Z,5.42
2019-02-17T02:06:20.125Z,5.38
2019-02-17T02:07:20.128Z,5.25
2019-02-17T02:08:20.100Z,5.30
2019-02-17T02:09:20.090Z,5.33
2019-02-17T02:10:20.097Z,5.24
2019-02-17T02:11:20.083Z,5.15
2019-02-17T02:12:20.055Z,5.18
2019-02-17T02:13:20.044Z,5.15
2019-02-17T02:14:20.035Z,5.12
2019-02-17T02:15:20.056Z,5.06
2019-02-17T02:16:20.014Z,5.12
2019-02-17T02:17:20.002Z,5.13
2019-02-17T02:18:19.988Z,5.07
2019-02-17T02:19:19.979Z,5.04
2019-02-17T02:20:19.978Z,5.07
2019-02-17T02:21:19.955Z,5.07
2019-02-17T02:22:19.945Z,5.12
2019-02-17T02:23:19.932Z,5.10
2019-02-17T02:24:19.937Z,5.13
2019-02-17T02:25:19.932Z,5.06
2019-02-17T02:26:19.914Z,5.09
2019-02-17T02:27:19.890Z,5.09
2019-02-17T02:28:19.876Z,5.15
2019-02-17T02:29:19.868Z,5.17
2019-02-17T02:30:19.885Z,5.06
2019-02-17T02:31:19.846Z,5.06
2019-02-17T02:32:19.838Z,5.13
2019-02-17T02:33:19.833Z,5.09
2019-02-17T02:34:19.862Z,5.12
2019-02-17T02:35:19.818Z,5.12
2019-02-17T02:36:19.800Z,5.10
2019-02-17T02:37:19.786Z,5.10
2019-02-17T02:38:19.775Z,5.04
2019-02-17T02:39:19.757Z,5.13
2019-02-17T02:40:19.757Z,5.10
2019-02-17T02:41:19.734Z,5.13
2019-02-17T02:42:19.730Z,4.97
2019-02-17T02:43:19.709Z,4.97
2019-02-17T02:44:19.701Z,5.10
2019-02-17T02:45:19.688Z,5.09
2019-02-17T02:46:19.709Z,5.00
2019-02-17T02:47:19.677Z,4.94
2019-02-17T02:48:19.667Z,5.03
2019-02-17T02:49:19.646Z,5.12
2019-02-17T02:50:19.633Z,4.97
2019-02-17T02:51:19.640Z,4.99
2019-02-17T02:52:19.626Z,4.97
2019-02-17T02:53:19.610Z,5.00
2019-02-17T02:54:19.589Z,5.07
2019-02-17T02:55:19.604Z,5.04
2019-02-17T02:56:19.596Z,5.10
2019-02-17T02:57:19.555Z,5.04
2019-02-17T02:58:19.545Z,4.96
2019-02-17T02:59:19.548Z,5.10
2019-02-17T03:00:19.531Z,5.09
2019-02-17T03:01:19.542Z,5.03
2019-02-17T03:02:19.497Z,5.02
2019-02-17T03:03:19.484Z,5.06
2019-02-17T03:04:19.483Z,5.10
2019-02-17T03:05:19.464Z,5.12
2019-02-17T03:06:19.474Z,5.12
2019-02-17T03:07:19.439Z,5.03
2019-02-17T03:08:19.427Z,5.12
2019-02-17T03:09:19.418Z,5.15
2019-02-17T03:10:19.408Z,4.92
2019-02-17T03:11:19.407Z,5.00
2019-02-17T03:12:19.381Z,4.97
2019-02-17T03:13:19.379Z,4.96
2019-02-17T03:14:19.368Z,4.91
2019-02-17T03:15:19.352Z,5.03
2019-02-17T03:16:19.367Z,5.00
2019-02-17T03:17:19.340Z,4.96
2019-02-17T03:18:19.334Z,4.94
2019-02-17T03:19:19.305Z,4.97
2019-02-17T03:20:19.292Z,4.94
2019-02-17T03:21:19.308Z,4.99
2019-02-17T03:22:19.282Z,4.91
2019-02-17T03:23:19.259Z,4.91
2019-02-17T03:24:19.251Z,4.91
2019-02-17T03:25:19.239Z,4.99
2019-02-17T03:26:19.239Z,4.86
2019-02-17T03:27:19.248Z,4.78
2019-02-17T03:28:19.225Z,4.86
2019-02-17T03:29:19.192Z,4.80
2019-02-17T03:30:19.187Z,4.85
2019-02-17T03:31:19.174Z,4.85
2019-02-17T03:32:19.173Z,4.88
2019-02-17T03:33:19.161Z,4.84
2019-02-17T03:34:19.161Z,4.80
2019-02-17T03:35:19.134Z,4.89
2019-02-17T03:36:19.119Z,4.82
2019-02-17T03:37:19.115Z,4.91
2019-02-17T03:38:19.092Z,4.73
2019-02-17T03:39:19.094Z,4.80
2019-02-17T03:40:19.101Z,4.75
2019-02-17T03:41:19.058Z,4.75
2019-02-17T03:42:19.065Z,4.73
2019-02-17T03:43:19.048Z,4.78
2019-02-17T03:44:19.032Z,4.66
2019-02-17T03:45:19.021Z,4.67
2019-02-17T03:46:19.002Z,4.75
2019-02-17T03:47:19.345Z,4.62
2019-02-17T03:48:18.983Z,4.73
2019-02-17T03:49:18.995Z,4.59
2019-02-17T03:50:18.962Z,4.73
2019-02-17T03:51:18.964Z,4.67
2019-02-17T03:52:18.967Z,4.65
2019-02-17T03:53:18.944Z,4.69
2019-02-17T03:54:18.929Z,4.66
2019-02-17T03:55:18.901Z,4.69
2019-02-17T03:56:18.909Z,4.62
2019-02-17T03:57:18.876Z,4.66
2019-02-17T03:58:18.884Z,4.66
2019-02-17T03:59:18.856Z,4.67
2019-02-17T04:00:18.865Z,4.66
2019-02-17T04:01:18.835Z,4.73
2019-02-17T04:02:18.827Z,4.60
2019-02-17T04:03:18.826Z,4.65
2019-02-17T04:04:18.801Z,4.60
2019-02-17T04:05:18.794Z,4.47
2019-02-17T04:06:18.782Z,4.52
2019-02-17T04:07:18.780Z,4.54
2019-02-17T04:08:18.772Z,4.48
2019-02-17T04:09:18.746Z,4.42
2019-02-17T04:10:18.735Z,4.40
2019-02-17T04:11:18.748Z,4.23
2019-02-17T04:12:18.713Z,4.24
2019-02-17T04:13:18.715Z,4.15
2019-02-17T04:14:18.692Z,4.11
2019-02-17T04:15:18.682Z,3.93
2019-02-17T04:16:18.667Z,3.98
2019-02-17T04:17:18.662Z,3.91
2019-02-17T04:18:18.674Z,3.88
2019-02-17T04:19:18.663Z,3.90
2019-02-17T04:20:18.628Z,3.90
2019-02-17T04:21:18.611Z,3.94
2019-02-17T04:22:18.599Z,3.91
2019-02-17T04:23:18.838Z,3.87
2019-02-17T04:24:18.582Z,3.93
2019-02-17T04:25:18.579Z,3.88
2019-02-17T04:26:18.553Z,3.83
2019-02-17T04:27:18.541Z,3.87
2019-02-17T04:28:18.546Z,3.91
2019-02-17T04:29:18.538Z,3.86
2019-02-17T04:30:28.952Z,3.83
2019-02-17T04:31:19.498Z,3.70
2019-02-17T04:32:18.493Z,3.78
2019-02-17T04:33:18.501Z,3.70
2019-02-17T04:34:18.464Z,3.61
2019-02-17T04:35:18.460Z,3.61
2019-02-17T04:36:18.442Z,3.57
2019-02-17T04:37:18.446Z,3.52
2019-02-17T04:38:18.437Z,3.52
2019-02-17T04:39:18.417Z,3.54
2019-02-17T04:40:18.403Z,3.52
2019-02-17T04:41:18.388Z,3.52
2019-02-17T04:42:18.395Z,3.54
2019-02-17T04:43:18.369Z,3.51
2019-02-17T04:44:18.389Z,3.45
2019-02-17T04:45:18.340Z,3.45
2019-02-17T04:46:18.332Z,3.48
2019-02-17T04:47:18.321Z,3.43
2019-02-17T04:48:18.305Z,3.33
2019-02-17T04:49:18.307Z,3.31
2019-02-17T04:50:18.293Z,3.21
2019-02-17T04:51:18.386Z,3.31
2019-02-17T04:52:18.267Z,3.26
2019-02-17T04:53:18.276Z,3.31
2019-02-17T04:54:18.250Z,3.24
2019-02-17T04:55:18.234Z,3.24
2019-02-17T04:56:18.223Z,3.23
2019-02-17T04:57:18.210Z,3.20
2019-02-17T04:58:18.210Z,3.18
2019-02-17T04:59:18.207Z,3.23
2019-02-17T05:00:18.192Z,3.21
2019-02-17T05:01:18.159Z,3.23
2019-02-17T05:02:18.151Z,3.20
2019-02-17T05:03:18.146Z,3.29
2019-02-17T05:04:18.143Z,3.23
2019-02-17T05:05:18.127Z,3.17
2019-02-17T05:06:18.116Z,3.21
2019-02-17T05:07:18.116Z,3.17
2019-02-17T05:08:18.085Z,3.13
2019-02-17T05:09:18.083Z,3.14
2019-02-17T05:10:18.061Z,3.15
2019-02-17T05:11:18.057Z,3.08
2019-02-17T05:12:18.040Z,3.21
2019-02-17T05:13:18.032Z,3.17
2019-02-17T05:14:18.030Z,3.23
2019-02-17T05:15:18.022Z,3.13
2019-02-17T05:16:17.994Z,3.13
2019-02-17T05:17:17.997Z,3.13
2019-02-17T05:18:17.970Z,3.18
2019-02-17T05:19:17.976Z,3.18
2019-02-17T05:20:17.968Z,3.13
2019-02-17T05:21:17.964Z,3.14
2019-02-17T05:22:17.930Z,3.11
2019-02-17T05:23:17.915Z,3.15
2019-02-17T05:24:17.903Z,3.13
2019-02-17T05:25:17.907Z,3.10
2019-02-17T05:26:17.893Z,3.15
2019-02-17T05:27:17.873Z,3.08
2019-02-17T05:28:17.860Z,3.15
2019-02-17T05:29:17.847Z,3.24
2019-02-17T05:30:17.858Z,3.10
2019-02-17T05:31:17.843Z,3.15
2019-02-17T05:32:17.818Z,3.13
2019-02-17T05:33:17.805Z,3.10
2019-02-17T05:34:17.802Z,3.20
2019-02-17T05:35:17.793Z,3.21
2019-02-17T05:36:17.774Z,3.14
2019-02-17T05:37:17.758Z,3.24
2019-02-17T05:38:17.759Z,3.23
2019-02-17T05:39:17.734Z,3.24
2019-02-17T05:40:17.768Z,3.31
2019-02-17T05:41:17.729Z,3.26
2019-02-17T05:42:17.711Z,3.29
2019-02-17T05:43:17.689Z,3.29
2019-02-17T05:44:17.697Z,3.28
2019-02-17T05:45:17.706Z,3.36
2019-02-17T05:46:17.656Z,3.33
2019-02-17T05:47:17.649Z,3.39
2019-02-17T05:48:17.648Z,3.42
2019-02-17T05:49:17.625Z,3.47
2019-02-17T05:50:17.630Z,3.45
2019-02-17T05:51:17.614Z,3.52
2019-02-17T05:52:17.595Z,3.47
2019-02-17T05:53:17.588Z,3.55
2019-02-17T05:54:17.565Z,3.50
2019-02-17T05:55:17.571Z,3.52
2019-02-17T05:56:17.560Z,3.51
2019-02-17T05:57:17.532Z,3.62
2019-02-17T05:58:17.530Z,3.60
2019-02-17T05:59:17.517Z,3.57
2019-02-17T06:00:17.515Z,3.55
2019-02-17T06:01:17.489Z,3.51
2019-02-17T06:02:17.478Z,3.51
2019-02-17T06:03:17.467Z,3.54
2019-02-17T06:04:17.458Z,3.50
2019-02-17T06:05:17.462Z,3.50
2019-02-17T06:06:17.442Z,3.47
2019-02-17T06:07:17.428Z,3.51
2019-02-17T06:08:17.411Z,3.50
2019-02-17T06:09:17.418Z,3.45
2019-02-17T06:10:17.403Z,3.54
2019-02-17T06:11:17.375Z,3.52
2019-02-17T06:12:18.641Z,3.48
2019-02-17T06:13:17.376Z,3.55
2019-02-17T06:14:17.341Z,3.47
2019-02-17T06:15:17.343Z,3.45
2019-02-17T06:16:17.323Z,3.48
2019-02-17T06:17:17.319Z,3.47
2019-02-17T06:18:17.296Z,3.48
2019-02-17T06:19:17.874Z,3.54
2019-02-17T06:20:17.296Z,3.51
2019-02-17T06:21:17.263Z,3.54
2019-02-17T06:22:17.252Z,3.48
2019-02-17T06:23:17.254Z,3.48
2019-02-17T06:24:17.239Z,3.51
2019-02-17T06:25:17.231Z,3.48
2019-02-17T06:26:17.213Z,3.52
2019-02-17T06:27:17.199Z,3.51
2019-02-17T06:28:17.185Z,3.50
2019-02-17T06:29:17.179Z,3.48
2019-02-17T06:30:17.186Z,3.48
2019-02-17T06:31:17.152Z,3.51
2019-02-17T06:32:17.158Z,3.47
2019-02-17T06:33:17.142Z,3.35
2019-02-17T06:34:17.129Z,3.42
2019-02-17T06:35:17.121Z,3.33
2019-02-17T06:36:17.096Z,3.40
2019-02-17T06:37:17.083Z,3.36
2019-02-17T06:38:17.073Z,3.43
2019-02-17T06:39:17.094Z,3.40
2019-02-17T06:40:17.064Z,3.33
2019-02-17T06:41:17.049Z,3.40
2019-02-17T06:42:17.056Z,3.33
2019-02-17T06:43:17.017Z,3.39
2019-02-17T06:44:17.009Z,3.39
2019-02-17T06:45:19.549Z,3.36
2019-02-17T06:46:17.000Z,3.40
2019-02-17T06:47:16.976Z,3.40
2019-02-17T06:48:16.961Z,3.40
2019-02-17T06:49:16.950Z,3.43
2019-02-17T06:50:16.946Z,3.50
2019-02-17T06:51:16.945Z,3.42
2019-02-17T06:52:16.922Z,3.48
2019-02-17T06:53:16.913Z,3.48
2019-02-17T06:54:16.896Z,3.52
2019-02-17T06:55:16.889Z,3.58
2019-02-17T06:56:16.890Z,3.51
2019-02-17T06:57:16.865Z,3.57
2019-02-17T06:58:16.855Z,3.58
2019-02-17T06:59:16.840Z,3.55
2019-02-17T07:00:16.824Z,3.62
2019-02-17T07:01:24.429Z,3.66
2019-02-17T07:02:17.814Z,3.58
2019-02-17T07:03:16.809Z,3.51
2019-02-17T07:04:16.803Z,3.55
2019-02-17T07:05:16.770Z,3.60
2019-02-17T07:06:16.779Z,3.60
2019-02-17T07:07:16.770Z,3.57
2019-02-17T07:08:16.788Z,3.51
2019-02-17T07:09:16.741Z,3.48
2019-02-17T07:10:16.723Z,3.48
2019-02-17T07:11:16.748Z,3.55
2019-02-17T07:12:16.701Z,3.62
2019-02-17T07:13:16.705Z,3.65
2019-02-17T07:14:16.675Z,3.66
2019-02-17T07:15:16.677Z,3.66
2019-02-17T07:16:16.684Z,3.60
2019-02-17T07:17:16.639Z,3.68
2019-02-17T07:18:16.625Z,3.62
2019-02-17T07:19:16.622Z,3.58
2019-02-17T07:20:16.618Z,3.72
2019-02-17T07:21:16.592Z,3.66
2019-02-17T07:22:16.606Z,3.65
2019-02-17T07:23:16.568Z,3.58
2019-02-17T07:24:16.561Z,3.66
2019-02-17T07:25:16.557Z,3.66
2019-02-17T07:26:17.226Z,3.79
2019-02-17T07:27:16.569Z,3.66
2019-02-17T07:28:16.517Z,3.79
2019-02-17T07:29:16.930Z,3.87
2019-02-17T07:30:16.497Z,3.84
2019-02-17T07:31:16.498Z,3.88
2019-02-17T07:32:16.503Z,3.80
2019-02-17T07:33:16.465Z,3.87
2019-02-17T07:34:16.453Z,3.88
2019-02-17T07:35:16.449Z,3.97
2019-02-17T07:36:16.431Z,3.97
2019-02-17T07:37:16.434Z,4.12
2019-02-17T07:38:16.404Z,4.11
2019-02-17T07:39:16.395Z,4.05
2019-02-17T07:40:16.418Z,4.11
2019-02-17T07:41:16.372Z,4.09
2019-02-17T07:42:16.368Z,4.06
2019-02-17T07:43:16.348Z,4.09
2019-02-17T07:44:16.340Z,4.06
2019-02-17T07:45:16.326Z,4.18
2019-02-17T07:46:16.326Z,4.14
2019-02-17T07:47:18.036Z,4.24
2019-02-17T07:48:16.296Z,4.26
2019-02-17T07:49:16.301Z,4.23
2019-02-17T07:50:16.266Z,4.34
2019-02-17T07:51:16.266Z,4.22
2019-02-17T07:52:16.256Z,4.33
2019-02-17T07:53:16.246Z,4.36
2019-02-17T07:54:16.229Z,4.45
2019-02-17T07:55:16.211Z,4.41
2019-02-17T07:56:16.210Z,4.41
2019-02-17T07:57:16.225Z,4.40
2019-02-17T07:58:16.179Z,4.48
2019-02-17T07:59:16.189Z,4.47
2019-02-17T08:00:16.154Z,4.59
2019-02-17T08:01:16.141Z,4.59
2019-02-17T08:02:16.146Z,4.50
2019-02-17T08:03:16.137Z,4.59
2019-02-17T08:04:16.125Z,4.65
2019-02-17T08:05:16.122Z,4.67
2019-02-17T08:06:16.108Z,4.72
2019-02-17T08:07:16.080Z,4.69
2019-02-17T08:08:16.088Z,4.69
2019-02-17T08:09:16.055Z,4.73
2019-02-17T08:10:16.061Z,4.69
2019-02-17T08:11:16.056Z,4.73
2019-02-17T08:12:16.021Z,4.73
2019-02-17T08:13:16.034Z,4.75
2019-02-17T08:14:16.012Z,4.77
2019-02-17T08:15:15.999Z,4.75
2019-02-17T08:16:15.994Z,4.89
2019-02-17T08:17:15.972Z,4.92
2019-02-17T08:18:15.969Z,4.89
2019-02-17T08:19:15.961Z,4.97
2019-02-17T08:20:15.936Z,5.12
2019-02-17T08:21:15.921Z,5.13
2019-02-17T08:22:15.927Z,5.10
2019-02-17T08:23:15.922Z,5.09
2019-02-17T08:24:15.889Z,5.13
2019-02-17T08:25:21.882Z,5.10
2019-02-17T08:26:16.878Z,5.06
2019-02-17T08:27:15.861Z,5.22
2019-02-17T08:28:15.871Z,5.27
2019-02-17T08:29:15.829Z,5.28
2019-02-17T08:30:15.830Z,5.42
2019-02-17T08:31:15.808Z,5.31
2019-02-17T08:32:15.804Z,5.35
2019-02-17T08:33:15.812Z,5.36
2019-02-17T08:34:15.798Z,5.36
2019-02-17T08:35:15.765Z,5.51
2019-02-17T08:36:15.754Z,5.51
2019-02-17T08:37:15.751Z,5.57
2019-02-17T08:38:15.734Z,5.71
2019-02-17T08:39:15.730Z,5.82
2019-02-17T08:40:15.708Z,5.83
2019-02-17T08:41:15.702Z,5.85
2019-02-17T08:42:15.684Z,5.97
2019-02-17T08:43:15.676Z,5.99
2019-02-17T08:44:15.681Z,6.06
2019-02-17T08:45:15.652Z,6.17
2019-02-17T08:46:15.637Z,6.12
2019-02-17T08:47:15.629Z,6.22
2019-02-17T08:48:15.627Z,6.31
2019-02-17T08:49:15.618Z,6.37
2019-02-17T08:50:15.595Z,6.54
2019-02-17T08:51:15.651Z,6.55
2019-02-17T08:52:15.572Z,6.64
2019-02-17T08:53:15.561Z,6.58
2019-02-17T08:54:15.563Z,6.76
2019-02-17T08:55:15.556Z,6.80
2019-02-17T08:56:15.532Z,6.88
2019-02-17T08:57:15.517Z,7.03
2019-02-17T08:58:15.521Z,7.03
2019-02-17T08:59:15.518Z,7.10
2019-02-17T09:00:15.506Z,7.21
2019-02-17T09:01:15.476Z,7.30
2019-02-17T09:02:15.462Z,7.53
2019-02-17T09:03:15.455Z,8.29
2019-02-17T09:04:15.460Z,9.02
2019-02-17T09:05:15.446Z,9.46
2019-02-17T09:06:15.454Z,9.29
2019-02-17T09:07:15.418Z,9.08
2019-02-17T09:08:15.395Z,9.02
2019-02-17T09:09:15.412Z,9.01
2019-02-17T09:10:15.380Z,9.13
2019-02-17T09:11:15.369Z,9.10
2019-02-17T09:12:15.446Z,9.69
2019-02-17T09:13:15.363Z,10.01
2019-02-17T09:14:15.340Z,10.70
2019-02-17T09:15:15.346Z,10.78
2019-02-17T09:16:15.310Z,10.70
2019-02-17T09:17:15.346Z,11.07
2019-02-17T09:18:15.281Z,11.46
2019-02-17T09:19:15.269Z,11.95
2019-02-17T09:20:15.284Z,11.86
2019-02-17T09:21:15.275Z,11.76
2019-02-17T09:22:15.266Z,11.04
2019-02-17T09:23:15.231Z,10.70
2019-02-17T09:24:15.217Z,10.27
2019-02-17T09:25:15.224Z,10.02
2019-02-17T09:26:15.190Z,10.25
2019-02-17T09:27:15.185Z,10.40
2019-02-17T09:28:15.182Z,11.15
2019-02-17T09:29:15.217Z,11.57
2019-02-17T09:30:15.176Z,11.39
2019-02-17T09:31:15.133Z,11.72
2019-02-17T09:32:16.673Z,11.82
2019-02-17T09:33:15.137Z,12.29
2019-02-17T09:34:15.102Z,12.56
2019-02-17T09:35:15.112Z,12.50
2019-02-17T09:36:15.077Z,12.57
2019-02-17T09:37:15.069Z,12.67
2019-02-17T09:38:17.121Z,12.52
2019-02-17T09:39:15.105Z,12.49
2019-02-17T09:40:15.038Z,12.53
2019-02-17T09:41:15.111Z,12.46
2019-02-17T09:42:15.011Z,12.21
2019-02-17T09:43:15.017Z,12.45
2019-02-17T09:44:15.026Z,12.52
2019-02-17T09:45:15.009Z,12.85
2019-02-17T09:46:14.988Z,12.45
2019-02-17T09:47:14.956Z,12.52
2019-02-17T09:48:14.941Z,12.60
2019-02-17T09:49:14.934Z,12.35
2019-02-17T09:50:14.932Z,12.50
2019-02-17T09:51:14.933Z,12.57
2019-02-17T09:52:14.900Z,12.57
2019-02-17T09:53:14.884Z,12.53
2019-02-17T09:54:14.878Z,12.93
2019-02-17T09:55:14.865Z,13.49
2019-02-17T09:56:14.860Z,13.52
2019-02-17T09:57:14.861Z,14.02
2019-02-17T09:58:14.845Z,14.54
2019-02-17T09:59:14.821Z,14.22
2019-02-17T10:00:14.828Z,14.28
2019-02-17T10:01:14.810Z,14.22
2019-02-17T10:02:14.799Z,14.50
2019-02-17T10:03:14.772Z,14.29
2019-02-17T10:04:14.758Z,13.91
2019-02-17T10:05:14.771Z,13.95
2019-02-17T10:06:14.750Z,13.55
2019-02-17T10:07:14.772Z,13.49
2019-02-17T10:08:14.721Z,13.64
2019-02-17T10:09:14.702Z,14.07
2019-02-17T10:10:14.697Z,14.36
2019-02-17T10:11:14.691Z,14.40
2019-02-17T10:12:14.676Z,14.33
2019-02-17T10:13:14.717Z,14.42
2019-02-17T10:14:14.667Z,14.14
2019-02-17T10:15:14.640Z,13.89
2019-02-17T10:16:14.628Z,13.92
2019-02-17T10:17:14.625Z,14.22
2019-02-17T10:18:14.615Z,13.96
2019-02-17T10:19:14.633Z,14.14
2019-02-17T10:20:14.575Z,14.24
2019-02-17T10:21:14.614Z,14.45
2019-02-17T10:22:14.580Z,14.54
2019-02-17T10:23:14.562Z,14.73
2019-02-17T10:24:14.552Z,15.13
2019-02-17T10:25:14.530Z,15.46
2019-02-17T10:26:14.512Z,15.47
2019-02-17T10:27:14.517Z,15.21
2019-02-17T10:28:14.490Z,14.52
2019-02-17T10:29:14.477Z,14.24
2019-02-17T10:30:14.469Z,13.96
2019-02-17T10:31:14.451Z,13.85
2019-02-17T10:32:14.455Z,13.64
2019-02-17T10:33:14.431Z,13.75
2019-02-17T10:34:14.418Z,13.91
2019-02-17T10:35:14.418Z,13.96
2019-02-17T10:36:14.411Z,14.43
2019-02-17T10:37:14.396Z,14.80
2019-02-17T10:38:14.423Z,14.98
2019-02-17T10:39:14.416Z,14.22
2019-02-17T10:40:14.405Z,14.09
2019-02-17T10:41:14.399Z,14.12
2019-02-17T10:42:14.344Z,14.61
2019-02-17T10:43:14.332Z,14.84
2019-02-17T10:44:14.318Z,14.95
2019-02-17T10:45:14.309Z,15.09
2019-02-17T10:46:14.288Z,15.35
2019-02-17T10:47:14.297Z,15.51
2019-02-17T10:48:14.261Z,15.72
2019-02-17T10:49:14.253Z,15.57
2019-02-17T10:50:14.241Z,15.46
2019-02-17T10:51:14.229Z,15.25
2019-02-17T10:52:14.223Z,15.23
2019-02-17T10:53:14.230Z,15.29
2019-02-17T10:54:14.204Z,15.47
2019-02-17T10:55:14.189Z,15.44
2019-02-17T10:56:14.171Z,15.31
2019-02-17T10:57:14.165Z,15.56
2019-02-17T10:58:14.208Z,15.76
2019-02-17T10:59:14.169Z,15.89
2019-02-17T11:00:14.219Z,15.72
2019-02-17T11:01:14.260Z,15.65
2019-02-17T11:02:14.117Z,15.68
2019-02-17T11:03:14.123Z,15.68
2019-02-17T11:04:14.122Z,15.78
2019-02-17T11:05:14.064Z,15.89
2019-02-17T11:06:14.057Z,15.64
2019-02-17T11:07:14.067Z,15.56
2019-02-17T11:08:14.046Z,15.56
2019-02-17T11:09:14.026Z,15.54
2019-02-17T11:10:14.010Z,15.32
2019-02-17T11:11:13.999Z,15.28
2019-02-17T11:12:13.990Z,15.34
2019-02-17T11:13:13.988Z,15.36
2019-02-17T11:14:14.021Z,15.39
2019-02-17T11:15:13.967Z,15.50
2019-02-17T11:16:13.982Z,15.36
2019-02-17T11:17:13.930Z,14.54
2019-02-17T11:18:13.935Z,13.91
2019-02-17T11:19:13.912Z,13.81
2019-02-17T11:20:13.966Z,13.66
2019-02-17T11:21:13.898Z,13.95
2019-02-17T11:22:22.940Z,14.14
2019-02-17T11:23:14.941Z,14.24
2019-02-17T11:24:13.852Z,14.43
2019-02-17T11:25:13.865Z,14.52
2019-02-17T11:26:13.832Z,14.28
2019-02-17T11:27:13.827Z,14.36
2019-02-17T11:28:13.861Z,14.39
2019-02-17T11:29:13.821Z,14.46
2019-02-17T11:30:13.810Z,14.25
2019-02-17T11:31:13.777Z,14.29
2019-02-17T11:32:13.772Z,14.36
2019-02-17T11:33:13.792Z,14.50
2019-02-17T11:34:13.768Z,14.43
2019-02-17T11:35:13.730Z,14.12
2019-02-17T11:36:13.721Z,14.24
2019-02-17T11:37:13.708Z,14.06
2019-02-17T11:38:13.711Z,14.17
2019-02-17T11:39:13.708Z,14.37
2019-02-17T11:40:13.676Z,14.52
2019-02-17T11:41:13.662Z,14.69
2019-02-17T11:42:13.648Z,14.91
2019-02-17T11:43:13.644Z,15.16
2019-02-17T11:44:13.636Z,15.06
2019-02-17T11:45:13.629Z,15.31
2019-02-17T11:46:13.625Z,15.50
2019-02-17T11:47:13.626Z,15.59
2019-02-17T11:48:13.583Z,15.38
2019-02-17T11:49:13.601Z,15.16
2019-02-17T11:50:15.654Z,15.01
2019-02-17T11:51:13.561Z,14.99
2019-02-17T11:52:13.538Z,14.98
2019-02-17T11:53:13.527Z,14.83
2019-02-17T11:54:13.533Z,14.92
2019-02-17T11:55:13.509Z,14.96
2019-02-17T11:56:13.503Z,15.03
2019-02-17T11:57:13.485Z,14.83
2019-02-17T11:58:13.468Z,14.72
2019-02-17T11:59:13.474Z,14.69
2019-02-17T12:00:13.451Z,14.54
2019-02-17T12:01:13.445Z,14.65
2019-02-17T12:02:13.424Z,14.80
2019-02-17T12:03:13.424Z,14.88
2019-02-17T12:04:13.417Z,14.83
2019-02-17T12:05:13.391Z,14.70
2019-02-17T12:06:13.403Z,14.75
2019-02-17T12:07:13.366Z,14.84
2019-02-17T12:08:13.357Z,14.69
2019-02-17T12:09:13.359Z,14.46
2019-02-17T12:10:13.341Z,14.33
2019-02-17T12:11:13.327Z,14.52
2019-02-17T12:12:13.816Z,14.52
2019-02-17T12:13:13.297Z,14.61
2019-02-17T12:14:13.299Z,14.83
2019-02-17T12:15:13.275Z,15.07
2019-02-17T12:16:13.262Z,15.16
2019-02-17T12:17:13.251Z,15.11
2019-02-17T12:18:13.242Z,14.84
2019-02-17T12:19:13.267Z,14.64
2019-02-17T12:20:13.217Z,14.72
2019-02-17T12:21:13.214Z,14.78
2019-02-17T12:22:13.198Z,15.01
2019-02-17T12:23:13.183Z,15.14
2019-02-17T12:24:13.173Z,15.14
2019-02-17T12:25:13.182Z,15.25
2019-02-17T12:26:13.154Z,15.31
2019-02-17T12:27:13.142Z,15.56
2019-02-17T12:28:13.125Z,15.69
2019-02-17T12:29:13.116Z,15.57
2019-02-17T12:30:13.118Z,15.64
2019-02-17T12:31:13.102Z,15.51
2019-02-17T12:32:13.088Z,15.47
2019-02-17T12:33:19.293Z,15.50
2019-02-17T12:34:14.068Z,15.44
2019-02-17T12:35:13.062Z,15.34
2019-02-17T12:36:13.035Z,15.31
2019-02-17T12:37:13.028Z,15.53
2019-02-17T12:38:13.012Z,15.68
2019-02-17T12:39:15.122Z,15.59
2019-02-17T12:40:13.003Z,15.67
2019-02-17T12:41:12.986Z,15.71
2019-02-17T12:42:12.966Z,15.72
2019-02-17T12:43:12.969Z,16.15
2019-02-17T12:44:12.943Z,16.25
2019-02-17T12:45:16.216Z,16.57
2019-02-17T12:46:13.922Z,16.64
2019-02-17T12:47:12.916Z,16.76
2019-02-17T12:48:12.920Z,16.60
2019-02-17T12:49:12.902Z,16.21
2019-02-17T12:50:12.920Z,16.28
2019-02-17T12:51:12.867Z,16.31
2019-02-17T12:52:12.855Z,16.34
2019-02-17T12:53:12.844Z,16.39
2019-02-17T12:54:12.833Z,16.35
2019-02-17T12:55:12.834Z,16.56
2019-02-17T12:56:14.132Z,16.85
2019-02-17T12:57:12.799Z,16.91
2019-02-17T12:58:12.786Z,16.66
2019-02-17T12:59:12.775Z,16.53
2019-02-17T13:00:12.788Z,16.52
2019-02-17T13:01:13.579Z,16.86
2019-02-17T13:02:12.760Z,16.58
2019-02-17T13:03:12.739Z,16.71
2019-02-17T13:04:12.720Z,16.73
2019-02-17T13:05:12.712Z,17.11
2019-02-17T13:06:12.712Z,17.70
2019-02-17T13:07:12.692Z,17.96
2019-02-17T13:08:12.686Z,18.57
2019-02-17T13:09:12.664Z,18.99
2019-02-17T13:10:12.657Z,19.54